x

9439040 - Astoria, Or (asto3) Weather Station

10:54 - Fri 24th Jun 2016 All times are PDT. -7 hours from GMT.

  • Wind
    5mph, 8mph gusts
  • Sea Temp 64°f
  • Ar Temp 59°f
  • Sea Pressure 1026.5mb
  • 9439040 - Astoria, Or
  • 9439040 - Astoria, Or

More Historic Weather Station data

Upgrade to MSW Pro to gain access to the past 30 days of data for over 8000 Wavebouys and Weather Stations around the globe.

Join Pro

Comparision Forecast

View Surf forecast
   
Sex 06/24 10:54 5 8 mph 1026.5mb 64f 59f
10:48  -  mph 1026.5mb 64f 59f
10:42  -  mph 1026.5mb 64f 59f
10:36  -  mph 1026.5mb 64f 59f
10:30 3 7 mph 1026.5mb 64f 59f
10:24 3 7 mph 1026.5mb 64f 59f
10:18 1 5 mph 1026.5mb 64f 60f
10:12 3 7 mph 1026.5mb 64f 59f
10:06 3 6 mph 1026.4mb 64f 60f
10:00 5 7 mph 1026.4mb 64f 59f
9:54 5 7 mph 1026.4mb 64f 59f
9:48 6 7 mph 1026.4mb 64f 59f
9:42 6 8 mph 1026.4mb 64f 59f
9:36 6 7 mph 1026.4mb 64f 59f
9:30 5 8 mph 1026.4mb 64f 60f
9:24 6 8 mph 1026.4mb 64f 60f
9:18  -  7 mph 1026.4mb 64f 60f
9:12 3 6 mph 1026.3mb 64f 60f
9:06 5 8 mph 1026.4mb 64f 60f
9:00 3 8 mph 1026.4mb 64f 60f
8:54 3 7 mph 1026.4mb 64f 60f
8:48  -  mph 1026.5mb 64f -
8:42  -  mph 1026.5mb 64f -
8:36  -  mph 1026.5mb 64f -
8:30  -  5 mph 1026.5mb 64f 60f
8:24  -  7 mph 1026.5mb 64f 60f
8:18 2 6 mph 1026.5mb 64f 60f
8:12 3 6 mph 1026.6mb 64f 60f
8:06 1 3 mph 1026.5mb 64f 60f
8:00  -  mph 1026.5mb 64f -
7:54  -  mph 1026.5mb 64f -
7:48 2 8 mph 1026.5mb 64f -
7:42  -  7 mph 1026.5mb 64f -
7:36 2 5 mph 1026.4mb 64f -
7:30  -  mph 1026.3mb 64f -
7:24  -  mph 1026.4mb 64f -
7:18  -  mph - 65f 60f
7:12  -  mph - 65f 60f
7:06  -  mph - 65f 60f
7:00 8 10 mph - 65f -
6:54 6 8 mph - 65f -
6:48  -  mph 1026.4mb 65f -
6:42  -  mph 1026.4mb 65f -
6:36  -  mph 1026.5mb 64f -
6:30  -  mph 1026.5mb 64f 60f
6:24  -  mph 1026.6mb 64f 60f
6:18  -  mph 1026.5mb 64f 60f
6:12  -  mph 1026.5mb 64f 60f
6:06  -  mph 1026.5mb 64f 61f
6:00  -  mph 1026.5mb 64f 61f
5:54  -  mph 1026.5mb 64f 61f
5:48  -  mph 1026.5mb 64f -
5:42  -  mph 1026.4mb 64f -
5:36  -  mph 1026.4mb 64f -
5:30  -  mph 1026.4mb 64f -
5:24  -  mph 1026.5mb 64f -
5:18  -  mph 1026.5mb 64f 61f
5:12  -  mph 1026.5mb 64f 62f
5:06  -  mph 1026.5mb 65f 61f
5:00  -  mph 1026.5mb 65f -
4:54  -  mph 1026.5mb 65f -
4:48  -  mph 1026.5mb 65f -
4:42  -  mph 1026.4mb 65f -
4:36  -  mph 1026.4mb 65f -
4:30  -  mph 1026.5mb - 61f
4:24  -  mph 1026.5mb - 61f
4:18  -  mph 1026.5mb 65f 62f
4:12  -  mph 1026.5mb 65f 62f
4:06  -  mph 1026.4mb 65f 62f
4:00  -  mph 1026.4mb 65f -
3:54  -  mph 1026.4mb 65f -
3:48  -  mph - 65f -
3:42  -  mph - 65f -
3:36  -  mph - 65f -
3:30  -  mph 1026.5mb 65f -
3:24  -  mph 1026.5mb 65f -
3:18  -  mph 1026.5mb 65f 60f
3:12  -  mph 1026.4mb 65f 59f
3:06  -  mph 1026.4mb 65f 59f
3:00 13 15 mph - - -
2:54 11 14 mph - - -
2:48  -  mph - 65f 59f
2:42  -  mph - 65f 59f
2:36  -  mph - 65f 58f
2:30 10 14 mph 1026.2mb 65f 57f
2:24 13 16 mph 1026.2mb 65f 57f
2:18 16 20 mph 1026.2mb 65f 56f
2:12 15 20 mph 1026.1mb 65f 57f
2:06 14 16 mph 1026mb 65f 59f
2:00 11 15 mph 1025.9mb 65f 59f
1:54 13 15 mph 1025.8mb 65f 59f
1:48 11 15 mph 1025.7mb 65f 59f
1:42 11 15 mph 1025.7mb 65f 58f
1:36 13 15 mph 1025.6mb 65f 58f
1:30 11 14 mph 1025.6mb 65f 58f
1:24 10 13 mph 1025.5mb 65f 57f
1:18 10 13 mph 1025.6mb 65f 57f
1:12 9 13 mph 1025.5mb 65f 57f
1:06 8 13 mph 1025.4mb 65f 57f
1:00 10 14 mph 1025.4mb 65f 57f
12:54 11 15 mph 1025.4mb 65f 57f
12:48 11 15 mph 1025.3mb 65f 57f
12:42 14 17 mph 1025.3mb 65f 56f
12:36 15 21 mph 1025.3mb 65f 56f
12:30 20 22 mph 1025.3mb 65f -
12:24 14 17 mph 1025.1mb 65f -
12:18 14 21 mph 1025.1mb 65f 57f
12:12 17 21 mph 1025.1mb 65f 58f
12:06 11 17 mph 1024.9mb 65f 59f
12:00 14 18 mph 1024.9mb 64f 58f
11:54 3 11 mph 1024.8mb 64f 58f
11:48 11 16 mph 1024.8mb 64f 58f
11:42 9 14 mph 1024.7mb 64f 58f
11:36 11 17 mph 1024.7mb 64f 58f
11:30 13 17 mph 1024.6mb 64f 57f
11:24 10 15 mph 1024.5mb 64f 57f
11:18 6 14 mph 1024.5mb 64f 57f
11:12 13 15 mph 1024.5mb 64f 57f
11:06 11 16 mph 1024.5mb 64f 58f
11:00 10 16 mph 1024.4mb 64f 58f
10:54 13 16 mph 1024.3mb 64f 58f
10:48 9 13 mph 1024.3mb 64f 58f
10:42 9 11 mph 1024.2mb 64f 57f
10:36 8 11 mph 1024.1mb 64f 57f
10:30 6 9 mph 1024.1mb 64f 57f
10:24 8 13 mph 1024.2mb 64f 57f
10:18 8 13 mph 1024.1mb 64f 57f
10:12 8 10 mph 1024mb 64f 57f
10:06 6 13 mph 1024.1mb 64f 57f
10:00 8 14 mph 1024mb 64f 56f
9:54 10 15 mph 1024mb 64f 56f
9:48 10 17 mph 1024mb 64f 56f
9:42 13 17 mph 1023.8mb 64f 58f
9:36 9 14 mph 1023.7mb 64f 58f
9:30 7 14 mph 1023.6mb 64f 58f
9:24 8 15 mph 1023.5mb 64f 58f
9:18 10 14 mph 1023.5mb 64f 58f
9:12 9 11 mph 1023.5mb 64f 58f
9:06 11 14 mph 1023.5mb 64f 58f
9:00 10 13 mph 1023.4mb 64f 58f
8:54 9 14 mph 1023.4mb 64f 58f
8:48 9 14 mph 1023.3mb 64f 57f
8:42 10 17 mph 1023.3mb 64f 57f
8:36 10 14 mph 1023.2mb 64f 57f
8:30 11 15 mph 1023.2mb 64f 58f
8:24 10 15 mph 1023.1mb 64f 58f
8:18 10 13 mph 1023.1mb 64f 58f
8:12 10 15 mph 1023mb 64f 58f
8:06 10 14 mph 1023mb 64f 58f
8:00 8 11 mph 1023mb 64f 58f
7:54 9 10 mph 1023mb 64f 57f
7:48 8 13 mph 1022.9mb 64f 57f
7:42 8 10 mph 1022.9mb 64f 57f
7:36 9 11 mph 1022.8mb 64f 57f
7:30 9 11 mph 1022.7mb 64f 57f
7:24 7 11 mph 1022.7mb 64f 57f
7:18 8 10 mph 1022.7mb 63f 57f
7:12 8 11 mph 1022.6mb 63f 57f
7:06 9 11 mph 1022.6mb 64f 57f
7:00 7 10 mph 1022.6mb 64f 57f
6:54 8 10 mph 1022.5mb 64f 57f
6:48 6 8 mph 1022.5mb 64f 56f
6:42 6 7 mph 1022.4mb 64f 56f
6:36 7 9 mph 1022.4mb 64f 56f
6:30 6 8 mph 1022.3mb 64f 56f
6:24 6 8 mph 1022.3mb 64f 56f
6:18 6 7 mph 1022.3mb 64f 56f
6:12 6 7 mph 1022.2mb 64f 56f
6:06 5 6 mph 1022.1mb 64f 56f
6:00 3 6 mph 1022.1mb 64f 56f
5:54 3 6 mph 1022.1mb 64f 56f
5:48 6 7 mph 1022.1mb 64f 56f
5:42 5 6 mph 1022.1mb 65f 56f
5:36 6 7 mph 1022mb 65f 56f
5:30 5 8 mph 1022mb 65f 56f
5:24 6 8 mph 1021.9mb 65f 56f
5:18 7 8 mph 1021.9mb 65f 56f
5:12 6 8 mph 1021.8mb 65f 56f
5:06 6 8 mph 1021.8mb 65f 56f
5:00 6 8 mph 1021.8mb 65f 56f
4:54 6 8 mph 1021.8mb 65f 56f
4:48 6 8 mph 1021.7mb 65f 56f
4:42 7 8 mph 1021.7mb 65f 56f
4:36 6 8 mph 1021.7mb 65f 56f
4:30 7 9 mph 1021.6mb 65f 56f
4:24 6 8 mph 1021.6mb 65f 56f
4:18 6 8 mph 1021.5mb 65f 56f
4:12 6 8 mph 1021.4mb 65f 56f
4:06 6 7 mph 1021.4mb 65f 56f
4:00 5 7 mph 1021.3mb 65f 56f
3:54 6 8 mph 1021.3mb 65f 56f
3:48 6 7 mph 1021.3mb 65f 56f
3:42 6 8 mph 1021.3mb 65f 56f
3:36 6 7 mph 1021.3mb 65f 55f
3:30 5 9 mph 1021.3mb 65f 56f
3:24 6 7 mph 1021.3mb 65f 56f
3:18 6 7 mph 1021.3mb 65f 56f
3:12 6 7 mph 1021.2mb 65f 56f
3:06 6 9 mph 1021.2mb 65f 56f
3:00 7 9 mph 1021.2mb 65f 56f
2:54 7 11 mph 1021.2mb 65f 56f
2:48 6 8 mph 1021.2mb 65f 56f
2:42 6 9 mph 1021.1mb 65f 56f
2:36 7 9 mph 1021.1mb 65f 56f
2:30 6 8 mph 1021.1mb 65f 56f
2:24 7 9 mph 1021.1mb 65f 55f
2:18 7 9 mph 1021mb 65f 55f
2:12 7 9 mph 1021mb 65f 55f
2:06 7 10 mph 1020.9mb 65f 56f
2:00 7 9 mph 1020.9mb 65f 56f
1:54 6 10 mph 1020.9mb 65f 56f
1:48 8 11 mph 1020.8mb 65f 56f
1:42 9 10 mph 1020.8mb 65f 56f
1:36 8 10 mph 1020.8mb 65f 56f
1:30 9 10 mph 1020.8mb 65f 56f
1:24 7 9 mph 1020.8mb 65f 56f
1:18 8 11 mph 1020.8mb 65f 56f
1:12 7 11 mph 1020.8mb 65f 55f
1:06 7 9 mph 1020.8mb 65f 55f
1:00 6 9 mph 1020.8mb 65f 55f
12:54 6 8 mph 1020.8mb 65f 55f
12:48 6 7 mph 1020.8mb 65f 55f
12:42 3 6 mph 1020.8mb 65f 54f
12:36 3 5 mph 1020.8mb 65f 54f
12:30 5 6 mph 1020.8mb 65f 54f
12:24 5 6 mph 1020.9mb 65f 54f
12:18 6 7 mph 1020.9mb 65f 54f
12:12 5 6 mph 1020.8mb 65f 54f
12:06 5 6 mph 1020.8mb 65f 53f
12:00 2 3 mph 1020.8mb 65f 54f
Qui 06/23 11:54 3 6 mph 1020.8mb 65f 54f
11:48 2 8 mph 1020.8mb 65f 55f
11:42 2 7 mph 1020.8mb 65f 55f
11:36 7 20 mph 1020.9mb 65f 54f
11:30 16 22 mph 1020.9mb 65f 55f
11:24 8 13 mph 1020.8mb 65f 56f
11:18  -  mph 1020.6mb 65f 56f
11:12  -  mph 1020.5mb 65f 56f
11:06  -  mph 1020.5mb 65f 57f
11:00  -  mph 1020.5mb 65f 57f
10:54  -  mph 1020.5mb 65f 56f
10:48  -  mph 1020.5mb 65f 56f
10:42  -  mph 1020.4mb 65f 56f
10:36  -  mph 1020.4mb 65f 57f
10:30 5 6 mph 1020.4mb 65f 57f
10:24 2 6 mph 1020.4mb 64f 57f
10:18 5 7 mph 1020.4mb 64f 57f
10:12 3 9 mph 1020.4mb 64f 57f
10:06 5 6 mph 1020.4mb 64f 57f
10:00 5 9 mph 1020.4mb 64f 57f
9:54 7 10 mph 1020.3mb 64f 58f
9:48 9 10 mph 1020.3mb 64f 58f
9:42 7 9 mph 1020.2mb 64f 58f
9:36 9 11 mph 1020.2mb 64f 58f
9:30 7 10 mph 1020.1mb 64f 58f
9:24 8 11 mph 1020.1mb 64f 58f
9:18 9 13 mph 1020.1mb 64f 58f
9:12 9 13 mph 1020.1mb 64f 58f
9:06 8 11 mph 1020.1mb 65f 58f
9:00 9 13 mph 1020mb 65f 57f
8:54 13 16 mph 1020mb 65f 57f
8:48  -  mph 1020mb 65f -
8:42  -  mph 1019.9mb 65f -
8:36  -  mph 1019.9mb 65f -
8:30 8 14 mph 1020mb 65f 56f
8:24 10 14 mph 1020mb 65f 57f
8:18 10 16 mph 1019.9mb 64f 58f
8:12 11 14 mph 1019.8mb 64f 59f
8:06 11 13 mph 1019.8mb 64f 59f
8:00  -  mph 1019.8mb - -
7:54  -  mph 1019.8mb - -
7:48  -  mph 1019.8mb 64f -
7:42  -  mph 1019.8mb 64f -
7:36  -  mph 1019.7mb 64f -
7:30 10 14 mph 1019.7mb - -
7:24 10 14 mph 1019.6mb - -
7:18 10 15 mph 1019.7mb 64f -
7:12 11 14 mph 1019.6mb 64f -
7:06 11 14 mph 1019.5mb 64f -
7:00  -  mph 1019.4mb 64f -
6:54  -  mph 1019.4mb 64f -
6:48  -  mph 1019.4mb 64f -
6:42  -  mph 1019.3mb 64f -
6:36  -  mph 1019.3mb 64f -
6:30  -  mph 1019.3mb 65f -
6:24  -  mph 1019.3mb 65f -
6:18  -  mph 1019.3mb 65f 59f
6:12  -  mph 1019.3mb 65f 58f
6:06  -  mph 1019.3mb 65f 59f
6:00  -  mph 1019.2mb 65f -
5:54  -  mph 1019.2mb 65f -
5:48  -  mph 1019.1mb 64f -
5:42  -  mph 1019.1mb 64f -
5:36  -  mph 1019.1mb 64f -
5:30  -  mph 1019.1mb 64f -
5:24  -  mph 1019.1mb 64f -
5:18  -  mph 1019.1mb 64f 58f
5:12  -  mph 1019mb 64f 59f
5:06  -  mph 1019mb 64f 59f
5:00  -  mph 1019mb - -
4:54  -  mph 1018.9mb - -
4:48  -  mph 1018.8mb - -
4:42  -  mph 1018.8mb - -
4:36  -  mph 1018.8mb - -
4:30  -  mph 1018.9mb 64f -
4:24  -  mph 1018.9mb 65f -
4:18  -  mph 1018.9mb 65f 58f
4:12  -  mph 1018.9mb 65f 58f
4:06  -  mph 1018.9mb 65f 59f
4:00  -  mph 1018.9mb 65f -
3:54  -  mph 1018.8mb 65f -
3:48  -  mph 1018.9mb - -
3:42  -  mph 1018.8mb - -
3:36  -  mph 1018.9mb - -
3:30  -  mph 1018.8mb 65f -
3:24  -  mph 1018.8mb 65f -
3:18  -  mph 1018.9mb 65f 58f
3:12  -  mph 1018.8mb 65f 58f
3:06  -  mph 1018.8mb 65f 58f
3:00  -  mph 1018.8mb 65f -
2:54  -  mph 1018.8mb 65f -
2:48  -  mph 1018.8mb 65f 58f
2:42  -  mph 1018.6mb 65f 58f
2:36  -  mph 1018.5mb 65f 58f
2:30 9 13 mph 1018.6mb 65f 58f
2:24 8 11 mph 1018.4mb 65f 58f
2:18 8 10 mph 1018.5mb 65f 58f
2:12 7 9 mph 1018.4mb 65f 58f
2:06 8 10 mph 1018.3mb 65f 58f
2:00 7 9 mph 1018.3mb 65f 58f
1:54 7 9 mph 1018.3mb 65f 57f
1:48 8 9 mph 1018.2mb 65f 57f
1:42 7 10 mph 1018.2mb 65f 57f
1:36 7 10 mph 1018.2mb 65f 57f
1:30 8 11 mph 1018.2mb 65f 57f
1:24 7 10 mph 1018.2mb 65f 57f
1:18 8 10 mph 1018.2mb 65f 57f
1:12 8 10 mph 1018.3mb 65f 56f
1:06 9 11 mph 1018.3mb 65f 56f
1:00 8 10 mph 1018.3mb 65f 56f
12:54 9 13 mph 1018.2mb 65f 56f
12:48 11 14 mph 1018.3mb 65f 56f
12:42 11 14 mph 1018.3mb 65f 56f
12:36 10 14 mph 1018.3mb 65f 56f
12:30 10 14 mph 1018.2mb 65f 56f
12:24 11 14 mph 1018.1mb 65f 56f
12:18 11 15 mph 1018.2mb 65f 56f
12:12 13 16 mph 1018.1mb 65f 56f
12:06 14 17 mph 1018mb 65f 56f
12:00 14 15 mph 1017.9mb 65f 57f
11:54 13 14 mph 1017.7mb 65f 57f
11:48 9 10 mph 1017.7mb 65f 57f
11:42 9 11 mph 1017.6mb 65f 57f
11:36 8 11 mph 1017.5mb 65f 57f
11:30 8 10 mph 1017.5mb 65f 57f
11:24 9 11 mph 1017.4mb 65f 58f
11:18 9 11 mph 1017.3mb 65f 58f
11:12 8 11 mph 1017.2mb 65f 57f
11:06 7 10 mph 1017.1mb 65f 57f
11:00 9 14 mph 1017.1mb 65f 57f
10:54 11 16 mph 1017.1mb 65f 57f
10:48 13 17 mph 1017mb 64f 57f
10:42 13 15 mph 1016.9mb 64f 57f
10:36 9 11 mph 1016.8mb 64f 57f
10:30 9 11 mph 1016.8mb 65f 57f
10:24 10 13 mph 1016.7mb 65f 58f
10:18 11 14 mph 1016.7mb 64f 58f
10:12 13 15 mph 1016.6mb 64f 58f
10:06 11 14 mph 1016.5mb 64f 58f
10:00 10 13 mph 1016.4mb 64f -
9:54 13 15 mph 1016.4mb 64f -
9:48 11 16 mph 1016.4mb 64f 59f
9:42 11 15 mph 1016.3mb 64f 59f
9:36 11 14 mph 1016.2mb 64f 58f
9:30 13 15 mph 1016.2mb 64f 58f
9:24 11 14 mph 1016.1mb 64f 58f
9:18 9 13 mph 1016.1mb 64f 58f
9:12 10 14 mph 1016mb 64f 58f
9:06 11 13 mph 1015.9mb 64f 58f
9:00 11 14 mph 1015.9mb 64f 58f
8:54 11 15 mph 1015.9mb 64f 59f
8:48 10 13 mph 1015.8mb 64f 59f
8:42 9 11 mph 1015.8mb 64f 58f
8:36 9 14 mph 1015.8mb 64f 58f
8:30  -  mph 1015.7mb 64f 58f
8:24  -  mph 1015.7mb 64f 58f
8:18 7 10 mph 1015.6mb 64f 58f
8:12 11 14 mph 1015.6mb 64f 58f
8:06 9 11 mph 1015.6mb 64f 58f
8:00 8 11 mph 1015.5mb 64f 58f
7:54 8 13 mph 1015.4mb 64f 58f
7:48 8 10 mph 1015.4mb 64f 58f
7:42 8 10 mph 1015.4mb 64f 58f
7:36 6 10 mph 1015.4mb 64f 58f
7:30 7 10 mph 1015.4mb 64f 58f
7:24 6 8 mph 1015.4mb 64f 58f
7:18 7 11 mph 1015.3mb 64f 57f
7:12 7 10 mph 1015.3mb 64f 58f
7:06 7 9 mph 1015.2mb 64f 58f
7:00 7 9 mph 1015.3mb 64f 58f
6:54 7 10 mph 1015.3mb 64f 58f
6:48  -  mph 1015.3mb 63f 57f
6:42  -  mph 1015.3mb 64f 57f
6:36  -  mph 1015.2mb 64f 57f
6:30 7 9 mph 1015.2mb 64f 57f
6:24 8 11 mph 1015.2mb 64f 58f
6:18 9 11 mph 1015.1mb 64f 57f
6:12 7 10 mph 1015.1mb 63f 57f
6:06 7 10 mph 1015.1mb 64f 57f
6:00 7 9 mph 1015mb 64f 57f
5:54 8 11 mph 1015mb 64f 57f
5:48 9 13 mph 1015mb 64f 57f
5:42 7 13 mph 1015mb 64f 57f
5:36 10 15 mph 1015mb 65f 57f
5:30 7 11 mph 1015mb 65f 57f
5:24 9 13 mph 1015mb 65f 57f
5:18 8 13 mph 1015.1mb 65f 57f
5:12 7 11 mph 1015mb 65f 56f
5:06 6 9 mph 1015mb 65f 56f
5:00 6 8 mph 1015mb 65f 56f
4:54 7 9 mph 1014.9mb 65f 56f
4:48 7 10 mph 1014.9mb 65f 56f
4:42 7 9 mph 1014.9mb 65f 56f
4:36 6 9 mph 1014.8mb 65f 56f
4:30 7 8 mph 1014.8mb 65f 56f
4:24 7 10 mph 1014.8mb 64f 56f
4:18 7 9 mph 1014.8mb 64f 56f
4:12 7 9 mph 1014.7mb 64f 56f
4:06 7 9 mph 1014.7mb 64f 56f
4:00 7 9 mph 1014.7mb 65f 56f
3:54 6 9 mph 1014.7mb 65f 56f
3:48 6 9 mph 1014.8mb 65f 56f
3:42 6 7 mph 1014.7mb 65f 56f
3:36 6 9 mph 1014.7mb 65f 56f
3:30 6 8 mph 1014.8mb 65f 56f
3:24 7 8 mph 1014.8mb 65f 56f
3:18 6 8 mph 1014.8mb 65f 56f
3:12 6 8 mph 1014.8mb 65f 56f
3:06 7 9 mph 1014.8mb 65f 56f
3:00 6 11 mph 1014.8mb 65f 57f
2:54 7 9 mph 1014.8mb 65f 57f
2:48 8 10 mph 1014.8mb 65f 57f
2:42 7 10 mph 1014.8mb 65f 57f
2:36 7 9 mph 1014.9mb 65f 57f
2:30 6 8 mph 1014.9mb 65f 57f
2:24 6 8 mph 1014.9mb 65f 57f
2:18 6 7 mph 1015mb 65f 57f
2:12 3 6 mph 1015mb 65f 58f
2:06 5 7 mph 1015.1mb 65f 57f
2:00 5 8 mph 1015.1mb 65f 58f
1:54 5 6 mph 1015.2mb 65f 57f
1:48 2 5 mph 1015.2mb 65f 57f
1:42 1 3 mph 1015.2mb 65f 57f
1:36 3 5 mph 1015.2mb 65f 57f
1:30 3 5 mph 1015.3mb 65f 57f
1:24 2 3 mph 1015.4mb 65f 57f
1:18 1 2 mph 1015.4mb 65f 57f
1:12 2
mph
1015.5mb 65f 57f
1:06 2 5 mph 1015.5mb 65f 57f
1:00 2
mph
1015.5mb 65f 57f
12:54 1 3 mph 1015.6mb 65f 57f
12:48 3 5 mph 1015.6mb 65f 57f
12:42 3 5 mph 1015.7mb 65f 57f
12:36 1 3 mph 1015.7mb 65f 57f
12:30 2 3 mph 1015.7mb 65f 57f
12:24 1 2 mph 1015.8mb 65f 57f
12:18 2 3 mph 1015.7mb 65f 57f
12:12 2 3 mph 1015.7mb 65f 57f
12:06 2 6 mph 1015.7mb 65f 57f
12:00 5 7 mph 1015.7mb 65f 57f
Qua 06/22 11:54 5 6 mph 1015.8mb 65f 57f
11:48 2 3 mph 1015.8mb 65f 57f
11:42 1 3 mph 1015.8mb 65f 57f
11:36 2 5 mph 1015.9mb 65f 57f
11:30  -  mph 1015.9mb 65f 57f
11:24  -  mph 1016mb 65f 57f
11:18 2 5 mph 1016mb 65f 57f
11:12 2 5 mph 1016.1mb 65f 57f
11:06 3 5 mph 1016.1mb 65f 57f
11:00 2 5 mph 1016.2mb 65f 57f
10:54 2 3 mph 1016.1mb 65f 57f
10:48  -  mph 1016.1mb 65f 57f
10:42  -  mph 1016.1mb 65f 57f
10:36  -  mph 1016.1mb 65f 57f
10:30 2 3 mph 1016.2mb 65f 57f
10:24 1 2 mph 1016.1mb 65f 57f
10:18 1 2 mph 1016.2mb 65f 57f
10:12 2 3 mph 1016.1mb 65f 57f
10:06 2 3 mph 1016.2mb 65f 57f
10:00 2 3 mph 1016.2mb 65f 57f
9:54 2
mph
1016.3mb 65f 58f
9:48 1 2 mph 1016.2mb 65f 58f
9:42 1 3 mph 1016.3mb 65f 58f
9:36 2 3 mph 1016.3mb 65f 58f
9:30 3
mph
1016.3mb 65f 58f
9:24 2 3 mph 1016.3mb 65f 58f
9:18 2
mph
1016.3mb 65f 58f
9:12 2 5 mph 1016.3mb 65f 58f
9:06 3 5 mph 1016.4mb 65f 59f
9:00 5 9 mph 1016.5mb 65f 59f
8:54 6 7 mph 1016.5mb 65f 59f
8:48  -  mph 1016.5mb 65f -
8:42  -  mph 1016.5mb 65f -
8:36  -  mph 1016.5mb 65f -
8:30 8 10 mph 1016.5mb 65f 60f
8:24 9 10 mph 1016.6mb 65f 60f
8:18  -  mph 1016.7mb 65f 60f
8:12  -  mph 1016.7mb 65f 60f
8:06  -  mph 1016.7mb 65f 60f
8:00  -  mph 1016.8mb 65f -
7:54  -  mph 1016.8mb 65f -
7:48  -  mph 1016.8mb - 60f
7:42  -  mph 1016.8mb - 60f
7:36  -  mph 1016.8mb - 60f
7:30  -  mph 1016.9mb 65f -
7:24  -  mph 1017mb 65f -
7:18  -  mph 1016.9mb 65f 60f
7:12  -  mph 1016.9mb 65f 60f
7:06  -  mph 1016.9mb 64f 60f
7:00  -  mph - 64f 60f
6:54  -  mph - 64f 60f
6:48  -  mph 1017.1mb 64f -
6:42  -  mph 1017.1mb 64f -
6:36  -  mph 1017.2mb 64f -
6:30 11 15 mph 1017.2mb - -
6:24 11 14 mph 1017.2mb - -
6:18  -  mph 1017.2mb 64f 60f
6:12  -  mph 1017.2mb 65f 60f
6:06  -  mph 1017.3mb 65f 60f
6:00  -  mph - 65f 61f
5:54  -  mph - 65f 60f
5:48  -  mph 1017.3mb 65f 61f
5:42  -  mph 1017.2mb 65f 61f
5:36  -  mph 1017.3mb 65f 61f
5:30 13 16 mph - - -
5:24 13 15 mph - - -
5:18  -  mph 1017.4mb 65f -
5:12  -  mph 1017.4mb 65f -
5:06  -  mph 1017.4mb 65f -
5:00  -  mph - 65f -
4:54  -  mph - 65f -
4:48  -  mph 1017.6mb 65f -
4:42  -  mph 1017.7mb 65f -
4:36  -  mph 1017.7mb 65f -
4:30  -  mph 1017.6mb 65f -
4:24  -  mph 1017.6mb 65f -
4:18  -  mph 1017.7mb 65f 61f
4:12  -  mph 1017.9mb 65f 61f
4:06  -  mph 1017.8mb 65f 61f
4:00  -  mph 1017.7mb 65f -
3:54  -  mph 1017.7mb 65f -
3:48  -  mph 1017.8mb 65f 61f
3:42  -  mph 1017.9mb 65f 61f
3:36  -  mph 1018mb 65f 61f
3:30  -  mph 1018mb - -
3:24  -  mph 1018.2mb - -
3:18  -  mph 1018.3mb 66f -
3:12  -  mph 1018.3mb 66f -
3:06  -  mph 1018.3mb 66f -
3:00  -  mph 1018.3mb 66f -
2:54  -  mph 1018.4mb 66f -
2:48  -  mph - 66f -
2:42  -  mph - 66f -
2:36  -  mph - 66f -
2:30 15 18 mph 1018.7mb 66f 61f
2:24 13 14 mph 1018.7mb 66f 61f
2:18 13 15 mph 1018.7mb 66f 61f
2:12 13 14 mph 1018.8mb 66f 60f
2:06 11 15 mph 1018.9mb 66f 60f
2:00 14 15 mph 1019mb 66f 60f
1:54 14 15 mph 1019mb 66f 60f
1:48 13 15 mph 1019.1mb 66f 60f
1:42 13 16 mph 1019.1mb 66f 60f
1:36 14 16 mph 1019.2mb 66f 60f
1:30 14 16 mph 1019.2mb 66f 60f
1:24 14 16 mph 1019.2mb 66f 60f
1:18 13 16 mph 1019.2mb 66f 60f
1:12 14 16 mph 1019.2mb 66f 60f
1:06 14 16 mph 1019.2mb 66f 60f
1:00 13 16 mph 1019.2mb 66f 60f
12:54 13 17 mph 1019.2mb 66f 60f
12:48 13 16 mph 1019.1mb 66f 60f
12:42 13 16 mph 1019.1mb 66f 60f
12:36 14 16 mph 1019mb 66f 60f
12:30 13 16 mph 1019mb 66f 61f
12:24 13 16 mph 1019.1mb 66f 60f
12:18 10 14 mph 1019mb 66f 60f
12:12 11 14 mph 1019mb 66f 60f
12:06 11 13 mph 1019mb 66f 60f
12:00 10 13 mph 1019mb 66f 60f
11:54 10 13 mph 1019mb 66f 60f
11:48 11 13 mph 1019mb 66f 60f
11:42 10 13 mph 1019.1mb 66f 60f
11:36 9 11 mph 1019.1mb 66f 60f
11:30 8 11 mph 1019mb 66f 60f
11:24 9 11 mph 1019.2mb 66f 60f
11:18 9 13 mph 1019.3mb 66f 60f
11:12 9 11 mph 1019.4mb 66f 60f
11:06 9 13 mph 1019.3mb 66f 60f
11:00 9 11 mph 1019.4mb 66f 60f
10:54 9 11 mph 1019.5mb 66f 60f
10:48 8 10 mph 1019.4mb 66f 60f
10:42 8 10 mph 1019.4mb 66f 60f
10:36 8 10 mph 1019.5mb 66f 60f
10:30 8 9 mph 1019.6mb 65f 60f
10:24 8 9 mph 1019.7mb 65f 60f
10:18 9 10 mph 1019.7mb 65f 59f
10:12 8 9 mph 1019.7mb 65f 59f
10:06 7 9 mph 1019.7mb 65f 60f
10:00 8 9 mph 1019.8mb 65f 59f
9:54 8
mph
1019.9mb 65f 59f
9:48 6 7 mph 1019.9mb 65f 59f
9:42 6 8 mph 1019.8mb 65f 59f
9:36 6 8 mph 1019.9mb 65f 59f
9:30 7 8 mph 1019.9mb 65f 59f
9:24 6 7 mph 1019.9mb 65f 58f
9:18 5 7 mph 1019.9mb 64f 58f
9:12 5 7 mph 1019.8mb 64f 58f
9:06 5 6 mph 1019.8mb 64f 58f
9:00 3 6 mph 1019.8mb 64f 58f
8:54 5 7 mph 1019.8mb 64f 58f
8:48 5 8 mph 1019.9mb 64f 58f
8:42 6 7 mph 1019.8mb 64f 58f
8:36 6 8 mph 1019.9mb 64f 58f
8:30 5 6 mph 1019.9mb 64f 58f
8:24 2 3 mph 1019.8mb 64f 58f
8:18 3 5 mph 1019.8mb 64f 57f
8:12 2 5 mph 1019.9mb 64f 57f
8:06 2 5 mph 1019.9mb 64f 57f
8:00 3 7 mph 1019.8mb 64f 57f
7:54 5 7 mph 1019.8mb 64f 57f
7:48 3 6 mph 1019.8mb 64f 57f
7:42 5 6 mph 1019.9mb 64f 57f
7:36 3 5 mph 1020mb 64f 57f
7:30 3 6 mph 1020mb 64f 56f
7:24 3 5 mph 1020.1mb 64f 56f
7:18 3 6 mph 1020.1mb 64f 56f
7:12 6 7 mph 1020.1mb 64f 56f
7:06 5 6 mph 1020.2mb 64f 56f
7:00 3 6 mph 1020.2mb 64f 56f
6:54 6
mph
1020.2mb 64f 55f
6:48  -  mph - 64f -
6:42  -  mph - 64f -
6:36  -  mph - 64f -
6:30 2
mph
1020.2mb 64f 55f
6:24 2
mph
1020.2mb 64f 55f
6:18 3
mph
1020.3mb 64f 55f
6:12 2 3 mph 1020.2mb 64f 55f
6:06 3 5 mph 1020.1mb 64f 55f
6:00 3
mph
1020.1mb 64f 55f
5:54 3 5 mph 1020.1mb 64f 55f
5:48 3 6 mph 1020.2mb 64f 55f
5:42 2 5 mph 1020.2mb 64f 55f
5:36 3 5 mph 1020.3mb 64f 55f
5:30 3 5 mph 1020.4mb 64f 55f
5:24 5 6 mph 1020.4mb 64f 55f
5:18 2 5 mph 1020.3mb 64f 56f
5:12 2 5 mph 1020.3mb 64f 56f
5:06 3 5 mph 1020.3mb 64f 56f
5:00 3
mph
1020.3mb 64f 56f
4:54 2 3 mph 1020.3mb 64f 56f
4:48 3
mph
1020.2mb 64f 56f
4:42 2
mph
1020.3mb 64f 56f
4:36 1 2 mph 1020.3mb 64f 56f
4:30 2 6 mph 1020.3mb 64f 57f
4:24 1 3 mph 1020.2mb 64f 57f
4:18 2 5 mph 1020.1mb 65f 57f
4:12  -  3 mph 1020.2mb 65f 57f
4:06 3 6 mph 1020.3mb 65f 57f
4:00 5 9 mph 1020.3mb 65f 57f
3:54  -  3 mph 1020.4mb 65f 57f
3:48 2 5 mph 1020.4mb 65f 57f
3:42 3 5 mph 1020.4mb 65f 57f
3:36 3
mph
1020.5mb 65f 57f
3:30 2 3 mph 1020.5mb 65f 57f
3:24 3 6 mph 1020.5mb 65f 57f
3:18 5 7 mph 1020.6mb 65f 58f
3:12 5 7 mph 1020.6mb 65f 58f
3:06 6 8 mph 1020.6mb 65f 57f
3:00 7 9 mph 1020.6mb 65f 58f
2:54 7 9 mph 1020.6mb 65f 58f
2:48 6 9 mph 1020.6mb 65f 58f
2:42 7 9 mph 1020.7mb 64f 58f
2:36 6 8 mph 1020.6mb 65f 58f
2:30 5 8 mph 1020.6mb 65f 58f
2:24 6 8 mph 1020.6mb 65f 58f
2:18 6 8 mph 1020.7mb 65f 58f
2:12 8 10 mph 1020.7mb 65f 58f
2:06 8 11 mph 1020.7mb 65f 58f
2:00 9 16 mph 1020.7mb 65f 58f
1:54 11 13 mph 1020.8mb 65f 58f
1:48 8 11 mph 1020.8mb 65f 58f
1:42 9 11 mph 1020.9mb 65f 58f
1:36 8 10 mph 1021mb 65f 58f
1:30 7 9 mph 1021mb 65f 58f
1:24 7 9 mph 1021.1mb 65f 58f
1:18 5 9 mph 1021.1mb 65f 58f
1:12 7 9 mph 1021.2mb 65f 58f
1:06 8 10 mph 1021.2mb 65f 58f
1:00 8 10 mph 1021.3mb 65f 58f
12:54 7 10 mph 1021.4mb 65f 58f
12:48 8 11 mph 1021.4mb 65f 58f
12:42 8 10 mph 1021.4mb 65f 58f
12:36 8 10 mph 1021.4mb 65f 58f
12:30 6 13 mph 1021.5mb 65f 58f
12:24 9 11 mph 1021.5mb 65f 58f
12:18 8 11 mph 1021.6mb 65f 58f
12:12 8 11 mph 1021.6mb 65f 58f
12:06 7 9 mph 1021.6mb 65f 58f
12:00 8 13 mph 1021.6mb 65f 58f
Ter 06/21 11:54 9 11 mph 1021.6mb 65f 58f
11:48 9 13 mph 1021.8mb 65f -
11:42 9 11 mph 1021.7mb 65f -
11:36 9 15 mph 1021.7mb 65f -
11:30 11 13 mph 1021.7mb 65f 58f
11:24 7 14 mph 1021.8mb 65f 58f
11:18 10 15 mph 1021.7mb 65f 58f
11:12 10 16 mph 1021.8mb 65f 58f
11:06 13 15 mph 1021.9mb 65f 58f
11:00 10 14 mph 1022.2mb 65f 59f
10:54 10 13 mph 1022.2mb 65f 59f
10:48 11 14 mph 1022.2mb 65f 59f
10:42 10 14 mph 1022.1mb 65f 59f
10:36 13 15 mph 1022.1mb 65f 59f
10:30 11 14 mph 1022.1mb 65f 59f
10:24 9 11 mph 1022.1mb 65f 59f
10:18 9 11 mph 1022.2mb 65f 59f
10:12 11 14 mph 1022.2mb 65f 59f
10:06 13 16 mph 1022.2mb 65f 59f
10:00 10 15 mph 1022.1mb 65f 59f
9:54 10 14 mph 1022.1mb 65f 59f
9:48 10 14 mph 1022mb 65f 59f
9:42 13 15 mph 1022mb 65f 60f
9:36 13 16 mph 1022.1mb 65f 60f
9:30 11 14 mph 1022.1mb 65f 60f
9:24 11 14 mph 1022mb 65f 60f
9:18 10 13 mph 1022.2mb 65f 60f
9:12 10 14 mph 1022.2mb 65f 60f
9:06 10 14 mph 1022.2mb 65f 60f
9:00 7 10 mph 1022.3mb 65f 60f
8:54 7 10 mph 1022.3mb 65f 60f
8:48  -  mph 1022.5mb 65f 60f
8:42  -  mph 1022.5mb 65f 60f
8:36  -  mph 1022.5mb 65f 60f
8:30 9 10 mph 1022.5mb 65f 60f
8:24 8 10 mph 1022.6mb 65f 60f
8:18  -  mph 1022.5mb 66f 60f
8:12  -  mph 1022.6mb 66f 60f
8:06  -  mph 1022.7mb 66f 60f
8:00  -  mph 1022.7mb - -
7:54  -  mph 1022.8mb - -
7:48  -  mph 1022.8mb 66f 60f
7:42  -  mph 1022.8mb 66f 60f
7:36  -  mph 1022.8mb 66f 61f
7:30  -  mph 1022.8mb 66f -
7:24  -  mph 1022.8mb 65f -
7:18 14 20 mph 1022.8mb - -
7:12 16 20 mph 1022.9mb - -
7:06 16 20 mph 1022.9mb - -
7:00 17 22 mph - 65f -
6:54 14 17 mph - 65f -
6:48 16 18 mph 1023mb 65f -
6:42 14 16 mph 1023mb 65f -
6:36 14 16 mph 1023mb 64f -
6:30  -  mph 1023mb 64f -
6:24  -  mph 1023.1mb 64f -
6:18  -  mph 1023.1mb 64f 64f
6:12  -  mph 1023.1mb 64f 64f
6:06  -  mph 1023.1mb 64f 64f
6:00  -  mph 1023.1mb 64f -
5:54  -  mph 1023.3mb 64f -
5:48  -  mph 1023.4mb 64f 63f
5:42  -  mph 1023.4mb 64f 63f
5:36  -  mph 1023.6mb 65f 63f
5:30  -  mph 1023.7mb 65f -
5:24  -  mph 1023.8mb 65f -
5:18  -  mph 1023.8mb 65f 62f
5:12  -  mph 1024mb 65f 62f
5:06  -  mph 1024mb 65f 62f
5:00  -  mph 1024mb 65f -
4:54  -  mph 1024.1mb 65f -
4:48 14 17 mph - 65f -
4:42 14 16 mph - 65f -
4:36 13 14 mph - 65f -
4:30  -  mph - 65f -
4:24  -  mph - 65f -
4:18  -  mph 1024.6mb 65f 63f
4:12  -  mph 1024.7mb 65f 63f
4:06  -  mph 1024.8mb 65f 63f
4:00  -  mph - 65f 62f
3:54  -  mph - 65f 62f
3:48  -  mph 1025.1mb - -
3:42  -  mph 1025.3mb - -
3:36  -  mph 1025.3mb - -
3:30  -  mph 1025.4mb - -
3:24  -  mph 1025.5mb - -
3:18  -  mph 1025.6mb 65f 62f
3:12  -  mph 1025.7mb 65f 62f
3:06  -  mph 1025.8mb 65f 62f
3:00  -  mph 1025.8mb - -
2:54  -  mph 1025.9mb - -
2:48  -  mph 1026mb - -
2:42  -  mph 1026mb - -
2:36  -  mph 1026.1mb - -
2:30 14 16 mph 1026.1mb 66f 61f
2:24 11 14 mph 1026.2mb 66f 61f
2:18 13 14 mph 1026.2mb 66f 61f
2:12 11 15 mph 1026.2mb 66f 61f
2:06 11 14 mph 1026.3mb 66f 61f
2:00 10 14 mph 1026.4mb 66f 61f
1:54 11 14 mph 1026.4mb 66f 61f
1:48 13 14 mph 1026.5mb 66f 61f
1:42 11 14 mph 1026.6mb 66f 61f
1:36 11 14 mph 1026.6mb 66f 61f
1:30 13 14 mph 1026.6mb 66f 61f
1:24 13 14 mph 1026.6mb 66f 61f
1:18 11 13 mph 1026.6mb 66f 61f
1:12 10 13 mph 1026.6mb 66f 62f
1:06 11 14 mph 1026.6mb 66f 61f
1:00 11 14 mph 1026.6mb 66f 61f
12:54 13 14 mph 1026.6mb 66f 61f
12:48 11 14 mph 1026.5mb 66f 61f
12:42 10 13 mph 1026.5mb 66f 61f
12:36 11 14 mph 1026.5mb 66f 61f
12:30 10 13 mph 1026.5mb 66f 61f
12:24 10 14 mph 1026.5mb 66f 61f
12:18 11 14 mph 1026.6mb 66f 61f
12:12 10 13 mph 1026.6mb 66f 61f
12:06 10 11 mph 1026.6mb 66f 61f
12:00 9 10 mph 1026.7mb 66f 61f
11:54 7 10 mph 1026.7mb 66f 61f
11:48 7 9 mph 1026.6mb 66f 61f
11:42 7 9 mph 1026.7mb 66f 61f
11:36 8 11 mph 1026.7mb 66f 61f
11:30 8 10 mph 1026.7mb 66f 61f
11:24 7 9 mph 1026.6mb 66f 61f
11:18 6 8 mph 1026.5mb 66f 61f
11:12 7 11 mph 1026.5mb 66f 60f
11:06 8 10 mph 1026.5mb 66f 61f
11:00 8 9 mph 1026.5mb 66f -
10:54 7 10 mph 1026.5mb 66f -
10:48 7 8 mph 1026.5mb 66f 60f
10:42 6 7 mph 1026.5mb 66f 60f
10:36 6 8 mph 1026.5mb 66f 60f
10:30 5 6 mph 1026.4mb 66f 60f
10:24 5 8 mph 1026.4mb 66f 60f
10:18 6 8 mph 1026.4mb 66f 60f
10:12 7 9 mph 1026.4mb 66f 60f
10:06 5 6 mph 1026.4mb 66f 61f
10:00 5 7 mph 1026.4mb 66f 61f
9:54 5 7 mph 1026.4mb 66f 60f
9:48 6 7 mph 1026.4mb 66f 60f
9:42 6 8 mph 1026.4mb 65f 60f
9:36 3 6 mph 1026.5mb 65f 61f
9:30 3 6 mph 1026.5mb 65f 60f
9:24 6 7 mph 1026.5mb 65f 60f
9:18 5 7 mph 1026.5mb 65f 60f
9:12 3 7 mph 1026.5mb 65f 60f
9:06 3 6 mph 1026.5mb 65f 60f
9:00 5 6 mph 1026.6mb 65f 60f
8:54 2 6 mph 1026.5mb 64f 60f
8:48 3 6 mph 1026.5mb 64f 60f
8:42 5 6 mph 1026.5mb 64f 60f
8:36 3 6 mph 1026.5mb 64f 60f
8:30 5 6 mph 1026.5mb 64f 60f
8:24 5 6 mph 1026.5mb 64f 60f
8:18 5 6 mph 1026.5mb 64f 60f
8:12 5 6 mph 1026.5mb 64f 59f
8:06 5 7 mph 1026.5mb 64f 60f
8:00 6 8 mph 1026.4mb 64f 59f
7:54 6 8 mph 1026.4mb 64f 59f
7:48 7 8 mph 1026.4mb 64f 59f
7:42 6 9 mph 1026.3mb 64f 59f
7:36 6 8 mph 1026.3mb 64f 59f
7:30 6 8 mph 1026.2mb 64f 59f
7:24 6 8 mph 1026.2mb 64f 59f
7:18 6 8 mph 1026mb 64f 59f
7:12 7 8 mph 1026mb 64f 58f
7:06 3 8 mph 1026mb 64f 58f
7:00 6 8 mph 1025.9mb 64f 59f